Time;durP1;ratioP1;P1;durP2;ratioP2;P2;SDS_P1;SDS_P2;PMS_P1;PMS_P2;Temp;Humidity;BMP_temperature;BMP_pressure;BME280_temperature;BME280_humidity;BME280_pressure;Samples;Min_cycle;Max_cycle;Signal;HPM_P1;HPM_P2
2021/09/14 00:17:50;;;;;;;6.82;2.72;;;;;;;;;;4528591;28;20354;-69
2021/09/14 00:20:16;;;;;;;4.72;2.62;;;;;;;;;;4170796;34;20209;-70
2021/09/14 00:22:42;;;;;;;4.90;2.40;;;;;;;;;;4161907;34;20131;-69
2021/09/14 00:25:08;;;;;;;8.52;2.72;;;;;;;;;;4163504;34;20145;-70
2021/09/14 00:27:34;;;;;;;4.68;3.30;;;;;;;;;;4163440;34;20127;-70
2021/09/14 00:30:00;;;;;;;3.78;1.60;;;;;;;;;;4163398;34;20141;-70
2021/09/14 00:32:26;;;;;;;4.87;2.25;;;;;;;;;;4163564;34;20122;-69
2021/09/14 00:34:52;;;;;;;4.12;2.58;;;;;;;;;;4163158;34;20463;-70
2021/09/14 00:37:18;;;;;;;6.95;2.90;;;;;;;;;;4163224;34;20145;-70
2021/09/14 00:39:44;;;;;;;5.28;2.30;;;;;;;;;;4163456;34;20475;-70
2021/09/14 00:42:09;;;;;;;6.82;2.28;;;;;;;;;;4163417;34;20110;-70
2021/09/14 00:44:35;;;;;;;4.47;2.22;;;;;;;;;;4163437;34;20107;-70
2021/09/14 00:47:01;;;;;;;4.78;2.83;;;;;;;;;;4163210;34;20239;-70
2021/09/14 00:49:27;;;;;;;5.87;2.25;;;;;;;;;;4163116;34;20124;-69
2021/09/14 00:51:53;;;;;;;5.40;2.12;;;;;;;;;;4163067;34;20495;-70
2021/09/14 00:54:19;;;;;;;5.25;2.28;;;;;;;;;;4163103;34;20114;-70
2021/09/14 00:56:45;;;;;;;4.80;2.47;;;;;;;;;;4163010;34;20131;-70
2021/09/14 00:59:11;;;;;;;3.50;2.40;;;;;;;;;;4163084;34;20105;-70
2021/09/14 01:01:36;;;;;;;6.62;2.42;;;;;;;;;;4163068;34;20107;-70
2021/09/14 01:04:03;;;;;;;4.15;1.83;;;;;;;;;;4162927;34;20118;-70
2021/09/14 01:06:29;;;;;;;7.47;2.60;;;;;;;;;;4163121;34;20456;-70
2021/09/14 01:08:55;;;;;;;4.53;2.00;;;;;;;;;;4161593;34;20214;-70
2021/09/14 01:11:21;;;;;;;4.22;2.30;;;;;;;;;;4150412;34;20133;-70
2021/09/14 01:13:47;;;;;;;6.20;2.50;;;;;;;;;;4139218;34;20254;-70
2021/09/14 01:16:13;;;;;;;5.40;2.62;;;;;;;;;;4165002;34;20586;-70
2021/09/14 01:18:39;;;;;;;5.82;2.15;;;;;;;;;;4164754;34;20110;-70
2021/09/14 01:21:06;;;;;;;4.85;2.40;;;;;;;;;;4151436;34;20134;-70
2021/09/14 01:23:32;;;;;;;5.45;2.30;;;;;;;;;;4151301;34;20181;-70
2021/09/14 01:25:58;;;;;;;3.33;1.80;;;;;;;;;;4150078;34;20210;-70
2021/09/14 01:28:24;;;;;;;4.65;2.53;;;;;;;;;;4151389;34;20117;-70
2021/09/14 01:30:50;;;;;;;3.20;2.42;;;;;;;;;;4149978;34;20539;-70
2021/09/14 01:33:16;;;;;;;2.97;1.73;;;;;;;;;;4149332;34;20126;-70
2021/09/14 01:35:43;;;;;;;4.25;1.98;;;;;;;;;;4150186;34;20196;-70
2021/09/14 01:38:09;;;;;;;4.47;1.87;;;;;;;;;;4151257;34;20464;-70
2021/09/14 01:40:35;;;;;;;6.95;2.33;;;;;;;;;;4150168;34;20130;-70
2021/09/14 01:43:04;;;;;;;3.75;1.70;;;;;;;;;;4151429;34;20532;-69
2021/09/14 01:45:30;;;;;;;2.15;1.58;;;;;;;;;;4151331;34;20122;-70
2021/09/14 01:47:56;;;;;;;5.87;2.00;;;;;;;;;;4151278;34;20117;-70
2021/09/14 01:50:22;;;;;;;1.30;1.25;;;;;;;;;;4151495;34;20589;-70
2021/09/14 01:52:48;;;;;;;7.37;2.00;;;;;;;;;;4151660;34;20120;-70
2021/09/14 01:55:17;;;;;;;1.30;1.20;;;;;;;;;;4164736;34;20169;-70
2021/09/14 01:57:43;;;;;;;8.00;2.42;;;;;;;;;;4164779;34;20517;-70
2021/09/14 02:00:14;;;;;;;2.37;1.92;;;;;;;;;;4163377;34;20111;-70
2021/09/14 02:08:17;;;;;;;5.62;2.30;;;;;;;;;;4164437;34;20107;-70
2021/09/14 02:29:58;;;;;;;6.50;2.30;;;;;;;;;;4150958;34;20130;-70
2021/09/14 02:43:43;;;;;;;7.32;1.80;;;;;;;;;;4150814;34;20174;-70
2021/09/14 02:56:16;;;;;;;1.67;1.52;;;;;;;;;;4150829;34;20095;-70
2021/09/14 02:59:55;;;;;;;7.65;2.20;;;;;;;;;;4150663;34;20557;-70
2021/09/14 03:02:22;;;;;;;8.48;2.25;;;;;;;;;;4150379;34;20127;-70
2021/09/14 03:04:47;;;;;;;2.17;1.45;;;;;;;;;;4150487;34;20129;-69
2021/09/14 03:07:13;;;;;;;5.80;1.37;;;;;;;;;;4150430;34;20207;-70
2021/09/14 03:09:39;;;;;;;3.17;2.10;;;;;;;;;;4150413;34;20473;-70
2021/09/14 03:12:05;;;;;;;4.28;2.08;;;;;;;;;;4150381;34;20566;-70
2021/09/14 03:14:31;;;;;;;0.93;0.93;;;;;;;;;;4150418;34;20099;-70
2021/09/14 03:16:57;;;;;;;2.45;1.73;;;;;;;;;;4150211;34;20629;-70
2021/09/14 03:19:23;;;;;;;1.23;1.12;;;;;;;;;;4150387;34;20645;-70
2021/09/14 03:21:49;;;;;;;2.58;1.40;;;;;;;;;;4150348;34;20126;-70
2021/09/14 03:24:15;;;;;;;1.00;1.00;;;;;;;;;;4150421;34;20549;-69
2021/09/14 03:26:41;;;;;;;5.78;1.35;;;;;;;;;;4150518;34;20149;-70
2021/09/14 03:29:07;;;;;;;4.25;1.50;;;;;;;;;;4150677;34;20454;-70
2021/09/14 03:31:34;;;;;;;2.05;1.42;;;;;;;;;;4150531;34;20186;-68
2021/09/14 03:34:00;;;;;;;1.37;1.27;;;;;;;;;;4150210;34;20112;-69
2021/09/14 03:36:25;;;;;;;5.57;1.85;;;;;;;;;;4150349;34;20224;-72
2021/09/14 03:38:51;;;;;;;2.25;1.42;;;;;;;;;;4150309;34;20130;-70
2021/09/14 03:41:17;;;;;;;6.47;2.30;;;;;;;;;;4150352;34;20126;-70
2021/09/14 03:43:43;;;;;;;5.05;1.80;;;;;;;;;;4150194;34;20129;-70
2021/09/14 03:46:09;;;;;;;5.53;2.08;;;;;;;;;;4150256;34;20519;-70
2021/09/14 03:48:35;;;;;;;7.80;2.00;;;;;;;;;;4150448;34;20227;-71
2021/09/14 03:51:01;;;;;;;7.78;2.00;;;;;;;;;;4150190;34;20111;-71
2021/09/14 03:53:27;;;;;;;4.75;1.48;;;;;;;;;;4150453;34;20542;-70
2021/09/14 03:55:53;;;;;;;5.28;2.20;;;;;;;;;;4150219;34;20150;-67
2021/09/14 03:58:19;;;;;;;8.23;1.55;;;;;;;;;;4150100;34;20118;-67
2021/09/14 04:00:51;;;;;;;3.20;1.58;;;;;;;;;;4150130;34;20851;-66
2021/09/14 04:03:20;;;;;;;6.80;2.08;;;;;;;;;;4150158;34;20436;-66
2021/09/14 04:06:20;;;;;;;6.40;1.83;;;;;;;;;;4149995;34;20187;-67
2021/09/14 04:08:52;;;;;;;0.70;0.70;;;;;;;;;;4149907;34;20111;-67
2021/09/14 04:11:21;;;;;;;4.15;2.55;;;;;;;;;;4150062;34;20538;-67
2021/09/14 04:13:51;;;;;;;4.32;2.10;;;;;;;;;;4149932;34;20181;-67
2021/09/14 04:16:18;;;;;;;10.10;2.00;;;;;;;;;;4149881;34;20111;-67
2021/09/14 04:18:44;;;;;;;9.82;2.35;;;;;;;;;;4152270;34;20611;-67
2021/09/14 04:21:10;;;;;;;5.15;2.30;;;;;;;;;;4161782;34;20095;-67
2021/09/14 04:23:35;;;;;;;3.30;2.30;;;;;;;;;;4163275;34;20204;-67
2021/09/14 04:26:01;;;;;;;1.73;1.60;;;;;;;;;;4163491;34;20268;-67
2021/09/14 04:28:27;;;;;;;4.03;1.92;;;;;;;;;;4163513;34;20525;-67
2021/09/14 04:30:53;;;;;;;5.18;3.20;;;;;;;;;;4163517;34;20446;-66
2021/09/14 04:33:19;;;;;;;5.62;2.08;;;;;;;;;;4162892;34;20130;-68
2021/09/14 04:35:45;;;;;;;4.50;3.00;;;;;;;;;;4163512;34;20215;-68
2021/09/14 04:38:11;;;;;;;2.40;2.05;;;;;;;;;;4163299;34;20210;-67
2021/09/14 04:40:37;;;;;;;4.03;1.83;;;;;;;;;;4162193;34;20110;-66
2021/09/14 04:43:03;;;;;;;2.53;0.98;;;;;;;;;;4163454;34;20134;-65
2021/09/14 04:45:30;;;;;;;1.40;1.30;;;;;;;;;;4163253;34;20110;-66
2021/09/14 04:47:56;;;;;;;7.47;2.55;;;;;;;;;;4161952;34;20140;-66
2021/09/14 04:50:21;;;;;;;1.00;0.93;;;;;;;;;;4162465;34;20118;-65
2021/09/14 04:52:47;;;;;;;2.80;1.73;;;;;;;;;;4163136;34;20284;-70
2021/09/14 04:55:13;;;;;;;1.95;1.25;;;;;;;;;;4163180;34;20103;-70
2021/09/14 04:57:39;;;;;;;1.52;1.42;;;;;;;;;;4163007;34;20125;-71
2021/09/14 05:00:05;;;;;;;4.22;1.80;;;;;;;;;;4163394;34;20155;-67
2021/09/14 05:02:31;;;;;;;0.90;0.90;;;;;;;;;;4162946;34;20115;-66
2021/09/14 05:04:58;;;;;;;1.10;1.05;;;;;;;;;;4163385;34;20526;-67
2021/09/14 05:07:24;;;;;;;0.95;0.95;;;;;;;;;;4162928;34;20463;-66
2021/09/14 05:09:50;;;;;;;2.25;2.05;;;;;;;;;;4163187;34;20105;-67
2021/09/14 05:12:16;;;;;;;0.77;0.77;;;;;;;;;;4162930;34;20134;-67
2021/09/14 05:14:41;;;;;;;2.17;2.00;;;;;;;;;;4162833;34;20122;-67
2021/09/14 05:17:07;;;;;;;2.40;1.70;;;;;;;;;;4162871;34;20141;-67
2021/09/14 05:19:35;;;;;;;3.60;2.20;;;;;;;;;;4162853;34;20612;-67
2021/09/14 05:22:01;;;;;;;5.05;2.10;;;;;;;;;;4162808;34;20114;-68
2021/09/14 05:24:28;;;;;;;3.10;1.80;;;;;;;;;;4162931;34;20091;-69
2021/09/14 05:26:54;;;;;;;5.47;2.12;;;;;;;;;;4162955;34;20121;-68
2021/09/14 05:29:20;;;;;;;5.20;2.30;;;;;;;;;;4162879;34;20127;-69
2021/09/14 05:31:46;;;;;;;3.03;1.80;;;;;;;;;;4162911;34;20588;-69
2021/09/14 05:34:13;;;;;;;7.25;2.28;;;;;;;;;;4163101;34;20123;-73
2021/09/14 05:36:39;;;;;;;7.95;1.70;;;;;;;;;;4161483;34;20118;-72
2021/09/14 05:39:05;;;;;;;7.25;2.50;;;;;;;;;;4161607;34;20130;-69
2021/09/14 05:41:31;;;;;;;3.30;2.20;;;;;;;;;;4162797;34;20115;-71
2021/09/14 05:43:56;;;;;;;7.82;2.40;;;;;;;;;;4162361;34;20098;-66
2021/09/14 05:46:22;;;;;;;5.07;2.60;;;;;;;;;;4162500;34;20198;-65
2021/09/14 05:48:48;;;;;;;9.35;2.72;;;;;;;;;;4162754;34;20129;-69
2021/09/14 05:51:14;;;;;;;1.30;1.20;;;;;;;;;;4162527;34;20095;-68
2021/09/14 05:53:40;;;;;;;6.53;1.40;;;;;;;;;;4162654;34;20481;-68
2021/09/14 05:56:06;;;;;;;7.68;2.95;;;;;;;;;;4162915;34;20118;-65
2021/09/14 05:58:32;;;;;;;4.57;1.90;;;;;;;;;;4162749;34;20127;-72
2021/09/14 06:00:58;;;;;;;1.08;1.08;;;;;;;;;;4162382;34;20103;-72
2021/09/14 06:03:23;;;;;;;0.93;0.93;;;;;;;;;;4164924;34;20115;-73
2021/09/14 06:05:49;;;;;;;1.30;1.12;;;;;;;;;;4164972;34;20121;-68
2021/09/14 06:08:15;;;;;;;2.28;1.60;;;;;;;;;;4164486;34;20146;-69
2021/09/14 06:10:41;;;;;;;6.53;1.80;;;;;;;;;;4164766;34;20130;-69
2021/09/14 06:13:07;;;;;;;6.25;2.30;;;;;;;;;;4164521;34;20146;-71
2021/09/14 06:15:32;;;;;;;6.95;1.77;;;;;;;;;;4164474;34;20122;-71
2021/09/14 06:17:58;;;;;;;4.85;2.35;;;;;;;;;;4162743;34;20153;-71
2021/09/14 06:20:24;;;;;;;7.47;2.30;;;;;;;;;;4163104;34;20123;-70
2021/09/14 06:22:50;;;;;;;4.68;2.70;;;;;;;;;;4164590;34;20210;-67
2021/09/14 06:25:16;;;;;;;5.45;1.98;;;;;;;;;;4164425;34;20593;-66
2021/09/14 06:27:42;;;;;;;8.38;2.80;;;;;;;;;;4164440;34;20137;-69
2021/09/14 06:30:08;;;;;;;6.45;2.40;;;;;;;;;;4164375;34;20122;-69
2021/09/14 06:32:34;;;;;;;2.67;1.75;;;;;;;;;;4164483;34;20534;-70
2021/09/14 06:35:00;;;;;;;4.37;2.80;;;;;;;;;;4164997;34;20111;-69
2021/09/14 06:37:26;;;;;;;4.78;2.90;;;;;;;;;;4164645;34;20113;-69
2021/09/14 06:39:52;;;;;;;1.67;1.55;;;;;;;;;;4164362;34;20143;-70
2021/09/14 06:42:18;;;;;;;4.07;1.95;;;;;;;;;;4162691;34;20141;-69
2021/09/14 06:44:43;;;;;;;2.20;2.00;;;;;;;;;;4163394;34;20134;-70
2021/09/14 06:47:09;;;;;;;9.38;2.17;;;;;;;;;;4164074;34;20114;-69
2021/09/14 06:49:35;;;;;;;4.75;2.58;;;;;;;;;;4164355;34;20158;-66
2021/09/14 06:52:01;;;;;;;4.43;2.35;;;;;;;;;;4164146;34;20451;-66
2021/09/14 06:54:27;;;;;;;5.95;2.40;;;;;;;;;;4163311;34;20633;-65
2021/09/14 06:56:53;;;;;;;4.20;2.00;;;;;;;;;;4162053;34;20118;-66
2021/09/14 06:59:19;;;;;;;4.85;1.37;;;;;;;;;;4162156;34;20485;-67
2021/09/14 07:01:45;;;;;;;1.42;1.33;;;;;;;;;;4162146;34;20107;-66
2021/09/14 07:04:11;;;;;;;2.72;1.27;;;;;;;;;;4162703;34;20446;-66
2021/09/14 07:06:37;;;;;;;1.60;1.25;;;;;;;;;;4162568;34;20122;-67
2021/09/14 07:09:03;;;;;;;1.90;1.70;;;;;;;;;;4163240;34;20105;-70
2021/09/14 07:11:29;;;;;;;4.57;2.28;;;;;;;;;;4164073;34;20117;-70
2021/09/14 07:13:57;;;;;;;7.10;2.42;;;;;;;;;;4163704;34;20569;-70
2021/09/14 07:16:24;;;;;;;5.07;2.15;;;;;;;;;;4164107;34;20591;-71
2021/09/14 07:18:49;;;;;;;6.10;3.25;;;;;;;;;;4162552;34;20107;-70
2021/09/14 07:21:15;;;;;;;4.60;2.25;;;;;;;;;;4164131;34;20125;-70
2021/09/14 07:23:42;;;;;;;5.82;2.85;;;;;;;;;;4163986;34;20130;-67
2021/09/14 07:26:08;;;;;;;1.52;1.42;;;;;;;;;;4163603;34;20211;-68
2021/09/14 07:28:34;;;;;;;10.65;3.33;;;;;;;;;;4164178;34;20111;-69
2021/09/14 07:31:00;;;;;;;14.35;3.83;;;;;;;;;;4164412;34;20123;-71
2021/09/14 07:33:25;;;;;;;4.57;2.58;;;;;;;;;;4162735;34;20115;-67
2021/09/14 07:35:51;;;;;;;3.03;2.00;;;;;;;;;;4164049;34;20114;-66
2021/09/14 07:38:18;;;;;;;7.80;3.05;;;;;;;;;;4163901;34;20235;-67
2021/09/14 07:40:44;;;;;;;5.18;2.60;;;;;;;;;;4164271;34;20107;-67
2021/09/14 07:43:10;;;;;;;6.20;3.40;;;;;;;;;;4164005;34;20086;-66
2021/09/14 07:45:36;;;;;;;5.30;2.67;;;;;;;;;;4164458;34;20702;-66
2021/09/14 07:48:02;;;;;;;3.92;1.92;;;;;;;;;;4162310;34;20130;-66
2021/09/14 07:50:28;;;;;;;1.83;1.30;;;;;;;;;;4162612;34;20550;-66
2021/09/14 07:52:53;;;;;;;2.37;1.98;;;;;;;;;;4163755;34;20133;-65
2021/09/14 07:55:19;;;;;;;3.70;1.62;;;;;;;;;;4163748;34;20129;-65
2021/09/14 07:57:45;;;;;;;4.85;2.62;;;;;;;;;;4163474;34;20114;-64
2021/09/14 08:00:11;;;;;;;1.98;1.77;;;;;;;;;;4163800;34;20121;-65
2021/09/14 08:02:37;;;;;;;7.20;3.15;;;;;;;;;;4163442;34;20114;-66
2021/09/14 08:05:04;;;;;;;2.40;1.83;;;;;;;;;;4163696;34;20125;-66
2021/09/14 08:07:30;;;;;;;1.23;1.12;;;;;;;;;;4163281;34;20130;-67
2021/09/14 08:09:56;;;;;;;7.43;3.65;;;;;;;;;;4163175;34;20277;-67
2021/09/14 08:12:22;;;;;;;5.07;2.25;;;;;;;;;;4163106;34;20511;-66
2021/09/14 08:14:48;;;;;;;8.90;3.62;;;;;;;;;;4163024;34;20182;-66
2021/09/14 08:17:16;;;;;;;7.87;3.00;;;;;;;;;;4163149;34;20438;-66
2021/09/14 08:19:42;;;;;;;12.45;3.47;;;;;;;;;;4163200;34;20103;-66
2021/09/14 08:22:09;;;;;;;6.55;3.08;;;;;;;;;;4163160;34;20298;-65
2021/09/14 08:24:35;;;;;;;7.70;3.15;;;;;;;;;;4162116;34;20111;-66
2021/09/14 08:27:01;;;;;;;4.50;2.58;;;;;;;;;;4162914;34;20519;-66
2021/09/14 08:29:27;;;;;;;6.87;3.60;;;;;;;;;;4163421;34;20111;-65
2021/09/14 08:31:52;;;;;;;4.80;3.78;;;;;;;;;;4163288;34;20218;-65
2021/09/14 08:34:18;;;;;;;9.40;3.05;;;;;;;;;;4163154;34;20114;-67
2021/09/14 08:36:44;;;;;;;9.02;3.28;;;;;;;;;;4162813;34;20105;-67
2021/09/14 08:39:10;;;;;;;4.53;2.92;;;;;;;;;;4162943;34;20131;-67
2021/09/14 08:41:37;;;;;;;7.60;3.60;;;;;;;;;;4162920;34;20209;-73
2021/09/14 08:44:03;;;;;;;2.92;2.03;;;;;;;;;;4161539;34;20513;-71
2021/09/14 08:46:29;;;;;;;2.30;1.73;;;;;;;;;;4163169;34;20115;-70
2021/09/14 08:48:55;;;;;;;1.30;1.20;;;;;;;;;;4162850;34;20146;-66
2021/09/14 08:51:20;;;;;;;2.00;1.77;;;;;;;;;;4161920;34;20222;-70
2021/09/14 08:53:46;;;;;;;5.07;2.42;;;;;;;;;;4161618;34;20123;-71
2021/09/14 08:56:19;;;;;;;1.52;1.27;;;;;;;;;;4163560;34;20588;-66
2021/09/14 08:58:59;;;;;;;3.55;2.33;;;;;;;;;;4162867;34;20099;-72
2021/09/14 09:01:25;;;;;;;2.12;1.52;;;;;;;;;;4161010;34;20201;-74
2021/09/14 09:04:17;;;;;;;1.42;1.35;;;;;;;;;;4162541;34;20115;-72
2021/09/14 09:06:43;;;;;;;4.05;1.98;;;;;;;;;;4159559;34;20103;-72
2021/09/14 09:09:16;;;;;;;6.32;2.60;;;;;;;;;;4162802;34;20135;-65
2021/09/14 09:11:53;;;;;;;3.55;2.47;;;;;;;;;;4162420;34;20115;-66
2021/09/14 09:14:19;;;;;;;14.38;3.53;;;;;;;;;;4162774;34;20110;-66
2021/09/14 09:16:44;;;;;;;3.17;1.52;;;;;;;;;;4162231;34;20156;-66
2021/09/14 09:19:10;;;;;;;1.42;1.33;;;;;;;;;;4162797;34;20112;-65
2021/09/14 09:21:38;;;;;;;12.57;3.45;;;;;;;;;;4160881;34;20202;-65
2021/09/14 09:24:08;;;;;;;3.17;1.77;;;;;;;;;;4161242;34;20123;-65
2021/09/14 09:26:42;;;;;;;1.27;1.17;;;;;;;;;;4162480;34;20582;-65
2021/09/14 09:29:09;;;;;;;9.75;2.22;;;;;;;;;;4162431;34;20098;-65
2021/09/14 09:31:37;;;;;;;6.07;1.75;;;;;;;;;;4162851;34;20122;-66
2021/09/14 09:34:07;;;;;;;3.70;2.17;;;;;;;;;;4162826;34;20202;-67
2021/09/14 09:36:36;;;;;;;3.90;2.50;;;;;;;;;;4164328;34;20141;-67
2021/09/14 09:39:04;;;;;;;6.20;3.33;;;;;;;;;;4164958;34;20110;-73
2021/09/14 09:41:33;;;;;;;5.50;3.20;;;;;;;;;;4164783;34;20136;-69
2021/09/14 09:44:06;;;;;;;4.30;3.25;;;;;;;;;;4165039;34;20215;-67
2021/09/14 09:46:32;;;;;;;10.13;2.87;;;;;;;;;;4164814;34;20150;-65
2021/09/14 09:49:01;;;;;;;2.50;2.10;;;;;;;;;;4163351;34;20556;-65
2021/09/14 09:51:27;;;;;;;5.37;2.47;;;;;;;;;;4164789;34;20115;-65
2021/09/14 09:53:53;;;;;;;6.35;3.50;;;;;;;;;;4163781;34;20119;-64
2021/09/14 09:56:19;;;;;;;1.67;1.58;;;;;;;;;;4163677;34;20115;-71
2021/09/14 09:58:46;;;;;;;7.57;4.22;;;;;;;;;;4163623;34;20214;-71
2021/09/14 10:01:15;;;;;;;6.65;3.03;;;;;;;;;;4163365;34;20198;-70
2021/09/14 10:04:11;;;;;;;2.92;1.77;;;;;;;;;;4163118;34;20202;-71
2021/09/14 10:06:43;;;;;;;1.40;1.30;;;;;;;;;;4163333;34;20103;-72
2021/09/14 10:09:08;;;;;;;5.72;2.05;;;;;;;;;;4153495;34;20500;-67
2021/09/14 10:11:36;;;;;;;3.15;2.22;;;;;;;;;;4162966;34;20115;-65
2021/09/14 10:14:07;;;;;;;4.47;2.42;;;;;;;;;;4163324;34;20112;-67
2021/09/14 10:16:39;;;;;;;2.42;1.45;;;;;;;;;;4164232;34;20130;-69
2021/09/14 10:19:13;;;;;;;14.38;3.33;;;;;;;;;;4162759;34;20617;-66
2021/09/14 10:21:40;;;;;;;7.28;4.10;;;;;;;;;;4164241;34;20153;-67
2021/09/14 10:24:17;;;;;;;3.03;2.40;;;;;;;;;;4163238;34;20114;-66
2021/09/14 10:26:43;;;;;;;7.10;3.60;;;;;;;;;;4162776;34;20141;-67
2021/09/14 10:29:13;;;;;;;6.62;2.70;;;;;;;;;;4164450;34;20555;-67
2021/09/14 10:31:40;;;;;;;10.90;3.72;;;;;;;;;;4158170;34;20202;-67
2021/09/14 10:34:10;;;;;;;3.30;2.40;;;;;;;;;;4163672;34;20130;-67
2021/09/14 10:36:37;;;;;;;4.28;3.10;;;;;;;;;;4152592;34;20223;-67
2021/09/14 10:39:22;;;;;;;6.78;3.25;;;;;;;;;;4162933;34;20541;-66
2021/09/14 10:41:51;;;;;;;5.45;2.83;;;;;;;;;;4164090;34;20615;-68
2021/09/14 10:44:31;;;;;;;4.22;3.50;;;;;;;;;;4164150;34;20115;-67
2021/09/14 10:47:07;;;;;;;5.30;2.92;;;;;;;;;;4163405;34;20161;-66
2021/09/14 10:49:51;;;;;;;4.35;3.03;;;;;;;;;;4164131;34;20095;-66
2021/09/14 10:52:33;;;;;;;8.60;3.35;;;;;;;;;;4164262;34;20122;-65
2021/09/14 10:55:04;;;;;;;7.03;3.12;;;;;;;;;;4163129;34;20525;-66
2021/09/14 10:57:37;;;;;;;3.50;1.60;;;;;;;;;;4164109;34;20119;-65
2021/09/14 11:00:31;;;;;;;5.28;3.00;;;;;;;;;;4164196;34;20573;-69
2021/09/14 11:03:02;;;;;;;3.85;2.45;;;;;;;;;;4160779;34;20127;-67
2021/09/14 11:05:29;;;;;;;7.68;2.97;;;;;;;;;;4163395;34;20106;-67
2021/09/14 11:08:01;;;;;;;10.40;3.55;;;;;;;;;;4163075;34;20231;-68
2021/09/14 11:10:41;;;;;;;13.20;3.35;;;;;;;;;;4150638;34;20126;-68
2021/09/14 11:13:08;;;;;;;6.95;3.17;;;;;;;;;;4161896;34;20231;-67
2021/09/14 11:15:33;;;;;;;8.02;3.33;;;;;;;;;;4163369;34;20161;-67
2021/09/14 11:17:59;;;;;;;7.18;3.22;;;;;;;;;;4162544;34;20131;-67
2021/09/14 11:20:26;;;;;;;8.07;3.90;;;;;;;;;;4162997;34;20123;-67
2021/09/14 11:22:52;;;;;;;7.50;3.17;;;;;;;;;;4163010;34;20153;-67
2021/09/14 11:25:28;;;;;;;6.62;1.60;;;;;;;;;;4162195;34;20195;-67
2021/09/14 11:28:11;;;;;;;3.20;1.50;;;;;;;;;;4161908;34;20130;-67
2021/09/14 11:30:38;;;;;;;3.17;1.85;;;;;;;;;;4160609;34;20134;-67
2021/09/14 11:33:04;;;;;;;3.03;2.28;;;;;;;;;;4149547;34;20130;-68
2021/09/14 11:35:34;;;;;;;1.70;1.50;;;;;;;;;;4148970;34;20126;-67
2021/09/14 11:38:04;;;;;;;7.25;3.15;;;;;;;;;;4150469;34;20134;-68
2021/09/14 11:40:32;;;;;;;8.15;2.17;;;;;;;;;;4150457;34;20211;-67
2021/09/14 11:43:03;;;;;;;9.40;3.83;;;;;;;;;;4150063;34;20190;-67
2021/09/14 11:45:30;;;;;;;6.68;3.15;;;;;;;;;;4150368;34;20215;-67
2021/09/14 11:47:57;;;;;;;9.90;3.90;;;;;;;;;;4148864;34;20117;-68
2021/09/14 11:50:26;;;;;;;6.82;3.22;;;;;;;;;;4150318;34;20538;-67
2021/09/14 11:53:07;;;;;;;6.00;2.67;;;;;;;;;;4150012;34;20116;-67
2021/09/14 11:55:33;;;;;;;9.45;2.95;;;;;;;;;;4150161;34;20119;-68
2021/09/14 11:57:59;;;;;;;2.37;1.65;;;;;;;;;;4150056;34;20451;-67
2021/09/14 12:00:36;;;;;;;2.65;1.73;;;;;;;;;;4150207;34;20127;-67
2021/09/14 12:03:02;;;;;;;1.58;1.35;;;;;;;;;;4150058;34;20135;-67
2021/09/14 12:05:28;;;;;;;5.10;1.90;;;;;;;;;;4156193;34;20150;-68
2021/09/14 12:07:57;;;;;;;5.93;3.60;;;;;;;;;;4162343;34;20122;-67
2021/09/14 12:10:26;;;;;;;6.75;2.78;;;;;;;;;;4162562;34;20111;-67
2021/09/14 12:12:53;;;;;;;4.28;2.45;;;;;;;;;;4163265;34;20135;-67
2021/09/14 12:15:20;;;;;;;12.50;3.75;;;;;;;;;;4163563;34;20134;-67
2021/09/14 12:17:46;;;;;;;4.03;2.62;;;;;;;;;;4163189;34;20107;-67
2021/09/14 12:20:12;;;;;;;4.72;3.30;;;;;;;;;;4163591;34;20105;-68
2021/09/14 12:22:38;;;;;;;7.28;3.97;;;;;;;;;;4163317;34;20123;-67
2021/09/14 12:25:05;;;;;;;10.73;4.30;;;;;;;;;;4161808;34;20125;-67
2021/09/14 12:27:31;;;;;;;7.45;4.00;;;;;;;;;;4163040;34;20129;-67
2021/09/14 12:29:56;;;;;;;6.93;4.12;;;;;;;;;;4163409;34;20130;-68
2021/09/14 12:32:22;;;;;;;11.12;4.05;;;;;;;;;;4157005;34;20661;-68
2021/09/14 12:34:48;;;;;;;7.03;3.90;;;;;;;;;;4149812;34;20475;-68
2021/09/14 12:37:15;;;;;;;4.75;3.95;;;;;;;;;;4152494;34;20114;-68
2021/09/14 12:39:41;;;;;;;6.00;4.20;;;;;;;;;;4163211;34;20113;-67
2021/09/14 12:42:07;;;;;;;12.57;4.03;;;;;;;;;;4163260;34;20130;-68
2021/09/14 12:44:33;;;;;;;8.10;4.78;;;;;;;;;;4163188;34;20149;-68
2021/09/14 12:46:59;;;;;;;6.65;4.75;;;;;;;;;;4163025;34;20582;-67
2021/09/14 12:49:25;;;;;;;6.68;4.82;;;;;;;;;;4161627;34;20134;-69
2021/09/14 12:51:53;;;;;;;6.80;5.20;;;;;;;;;;4162776;34;20134;-70
2021/09/14 12:54:19;;;;;;;3.65;3.30;;;;;;;;;;4161261;34;20460;-69
2021/09/14 12:56:45;;;;;;;5.70;3.35;;;;;;;;;;4161350;34;20214;-68
2021/09/14 12:59:11;;;;;;;4.70;3.35;;;;;;;;;;4161632;34;20198;-68
2021/09/14 13:01:37;;;;;;;11.50;4.87;;;;;;;;;;4162998;34;20130;-68
2021/09/14 13:04:03;;;;;;;8.13;5.30;;;;;;;;;;4162970;34;20109;-67
2021/09/14 13:06:29;;;;;;;7.97;5.53;;;;;;;;;;4163038;34;20131;-67
2021/09/14 13:08:55;;;;;;;8.63;4.93;;;;;;;;;;4162931;34;20115;-68
2021/09/14 13:11:21;;;;;;;7.37;5.30;;;;;;;;;;4162513;34;20238;-68
2021/09/14 13:16:31;;;;;;;13.57;6.55;;;;;;;;;;4165123;34;20602;-68
2021/09/14 13:18:57;;;;;;;8.50;5.00;;;;;;;;;;4164827;34;20214;-68
2021/09/14 13:21:23;;;;;;;6.93;4.32;;;;;;;;;;4165055;34;20107;-68
2021/09/14 13:23:49;;;;;;;6.18;5.00;;;;;;;;;;4164691;34;20122;-68
2021/09/14 13:26:16;;;;;;;11.95;6.18;;;;;;;;;;4165276;34;20113;-69
2021/09/14 13:28:42;;;;;;;10.05;5.22;;;;;;;;;;4163419;34;20113;-70
2021/09/14 13:31:08;;;;;;;7.47;4.82;;;;;;;;;;4165011;34;20150;-72
2021/09/14 13:33:34;;;;;;;8.30;5.30;;;;;;;;;;4164520;34;20134;-69
2021/09/14 13:36:00;;;;;;;5.30;4.78;;;;;;;;;;4164826;34;20524;-71
2021/09/14 13:38:27;;;;;;;6.43;4.10;;;;;;;;;;4162818;34;20169;-68
2021/09/14 13:40:57;;;;;;;10.70;4.53;;;;;;;;;;4163259;34;20123;-69
2021/09/14 13:46:16;;;;;;;10.95;5.90;;;;;;;;;;4164777;34;20513;-67
2021/09/14 13:48:53;;;;;;;5.87;4.03;;;;;;;;;;4164616;34;20429;-69
2021/09/14 13:51:28;;;;;;;4.72;3.90;;;;;;;;;;4164466;34;20186;-68
2021/09/14 13:53:54;;;;;;;5.18;4.00;;;;;;;;;;4164578;34;20218;-68
2021/09/14 13:56:25;;;;;;;9.60;6.28;;;;;;;;;;4162576;34;20446;-68
2021/09/14 13:58:51;;;;;;;3.83;2.67;;;;;;;;;;4162950;34;20158;-68
2021/09/14 14:01:17;;;;;;;1.85;1.20;;;;;;;;;;4164192;34;20560;-66
2021/09/14 14:03:43;;;;;;;6.10;3.72;;;;;;;;;;4163975;34;20198;-67
2021/09/14 14:06:10;;;;;;;4.95;2.40;;;;;;;;;;4164325;34;20138;-68
2021/09/14 14:08:35;;;;;;;6.93;2.60;;;;;;;;;;4163832;34;20125;-67
2021/09/14 14:11:02;;;;;;;4.62;2.97;;;;;;;;;;4164239;34;20774;-67
2021/09/14 14:13:29;;;;;;;8.23;5.72;;;;;;;;;;4163054;34;20530;-68
2021/09/14 14:15:55;;;;;;;7.57;5.47;;;;;;;;;;4164096;34;20082;-68
2021/09/14 14:18:21;;;;;;;10.52;4.65;;;;;;;;;;4164190;34;20511;-65
2021/09/14 14:20:47;;;;;;;7.72;5.22;;;;;;;;;;4164755;34;20602;-66
2021/09/14 14:23:13;;;;;;;3.80;3.15;;;;;;;;;;4164667;34;20500;-64
2021/09/14 14:25:39;;;;;;;5.30;3.37;;;;;;;;;;4164521;34;20230;-66
2021/09/14 14:28:05;;;;;;;3.87;3.00;;;;;;;;;;4164385;34;20158;-72
2021/09/14 14:30:31;;;;;;;5.37;2.47;;;;;;;;;;4164681;34;20136;-70
2021/09/14 14:32:58;;;;;;;8.90;3.42;;;;;;;;;;4164694;34;20548;-69
2021/09/14 14:35:26;;;;;;;6.37;3.92;;;;;;;;;;4163007;34;20109;-68
2021/09/14 14:37:53;;;;;;;9.65;4.78;;;;;;;;;;4163146;34;20125;-68
2021/09/14 14:40:20;;;;;;;4.93;4.05;;;;;;;;;;4164564;34;20102;-69
2021/09/14 14:42:46;;;;;;;6.30;4.10;;;;;;;;;;4151728;34;20198;-70
2021/09/14 14:45:11;;;;;;;6.68;3.40;;;;;;;;;;4164203;34;20149;-68
2021/09/14 14:47:37;;;;;;;1.87;1.70;;;;;;;;;;4164193;34;20191;-68
2021/09/14 14:50:03;;;;;;;1.40;1.30;;;;;;;;;;4162809;34;20118;-68
2021/09/14 14:52:30;;;;;;;3.05;2.40;;;;;;;;;;4164302;34;20114;-70
2021/09/14 14:54:58;;;;;;;4.50;4.07;;;;;;;;;;4164633;34;20188;-70
2021/09/14 14:57:24;;;;;;;4.75;3.58;;;;;;;;;;4164145;34;20721;-70
2021/09/14 14:59:50;;;;;;;5.25;3.87;;;;;;;;;;4162598;34;20507;-71
2021/09/14 15:02:16;;;;;;;6.53;4.37;;;;;;;;;;4163963;34;20150;-71
2021/09/14 15:04:42;;;;;;;5.40;3.90;;;;;;;;;;4163584;34;20095;-69
2021/09/14 15:07:08;;;;;;;4.12;3.72;;;;;;;;;;4163926;34;20126;-69
2021/09/14 15:09:33;;;;;;;6.50;4.20;;;;;;;;;;4163831;34;20138;-69
2021/09/14 15:11:59;;;;;;;5.93;4.37;;;;;;;;;;4163923;34;20519;-69
2021/09/14 15:14:25;;;;;;;7.28;4.82;;;;;;;;;;4163905;34;20137;-68
2021/09/14 15:16:51;;;;;;;8.90;5.12;;;;;;;;;;4163646;34;20115;-71
2021/09/14 15:19:17;;;;;;;6.20;4.78;;;;;;;;;;4163924;34;20114;-71
2021/09/14 15:21:43;;;;;;;11.02;5.85;;;;;;;;;;4163734;34;20114;-71
2021/09/14 15:24:09;;;;;;;9.70;5.40;;;;;;;;;;4164114;34;20193;-71
2021/09/14 15:26:35;;;;;;;6.62;4.82;;;;;;;;;;4163964;34;20229;-73
2021/09/14 15:29:05;;;;;;;8.75;4.82;;;;;;;;;;4164420;34;20205;-70
2021/09/14 15:31:34;;;;;;;7.05;5.25;;;;;;;;;;4160846;34;20202;-70
2021/09/14 15:34:00;;;;;;;7.78;5.30;;;;;;;;;;4148610;34;20224;-70
2021/09/14 15:36:27;;;;;;;9.88;5.62;;;;;;;;;;4151015;34;20247;-72
2021/09/14 15:38:53;;;;;;;15.70;7.28;;;;;;;;;;4150604;34;20134;-73
2021/09/14 15:41:19;;;;;;;11.50;6.50;;;;;;;;;;4150332;34;20566;-72
2021/09/14 15:43:47;;;;;;;11.55;6.28;;;;;;;;;;4150549;34;20115;-74
2021/09/14 15:46:13;;;;;;;11.07;6.28;;;;;;;;;;4150418;34;20096;-72
2021/09/14 15:48:40;;;;;;;10.13;6.35;;;;;;;;;;4148860;34;20139;-75
2021/09/14 15:51:06;;;;;;;9.38;6.20;;;;;;;;;;4150142;34;20115;-73
2021/09/14 15:53:33;;;;;;;11.73;5.72;;;;;;;;;;4148669;34;20234;-73